sensor_id;sensor_type;location;lat;lon;timestamp;temperature;humidity
57843;DHT22;43673;51.058;3.734;2022-09-28T06:31:36;14.40;99.90
57843;DHT22;43673;51.058;3.734;2022-09-28T06:34:02;15.00;99.90
57843;DHT22;43673;51.058;3.734;2022-09-28T06:36:28;15.40;99.90
57843;DHT22;43673;51.058;3.734;2022-09-28T06:38:55;15.70;99.90
57843;DHT22;43673;51.058;3.734;2022-09-28T06:41:22;16.10;99.90
57843;DHT22;43673;51.058;3.734;2022-09-28T06:43:49;16.30;99.90
57843;DHT22;43673;51.058;3.734;2022-09-28T06:46:14;16.70;99.90
57843;DHT22;43673;51.058;3.734;2022-09-28T06:48:40;16.90;99.90
57843;DHT22;43673;51.058;3.734;2022-09-28T06:51:08;17.20;99.90
57843;DHT22;43673;51.058;3.734;2022-09-28T06:53:34;17.50;99.90
57843;DHT22;43673;51.058;3.734;2022-09-28T06:56:00;17.70;99.90
57843;DHT22;43673;51.058;3.734;2022-09-28T06:58:27;17.80;99.90
57843;DHT22;43673;51.058;3.734;2022-09-28T07:00:55;17.10;99.90
57843;DHT22;43673;51.058;3.734;2022-09-28T07:03:25;16.50;99.90
57843;DHT22;43673;51.058;3.734;2022-09-28T07:05:53;15.80;99.90
57843;DHT22;43673;51.058;3.734;2022-09-28T07:08:22;15.30;99.90
57843;DHT22;43673;51.058;3.734;2022-09-28T07:23:54;15.10;99.90
57843;DHT22;43673;51.058;3.734;2022-09-28T07:26:20;16.10;99.90
57843;DHT22;43673;51.058;3.734;2022-09-28T07:28:46;17.20;99.90
57843;DHT22;43673;51.058;3.734;2022-09-28T07:31:12;18.10;99.90
57843;DHT22;43673;51.058;3.734;2022-09-28T07:33:37;18.80;99.90
57843;DHT22;43673;51.058;3.734;2022-09-28T07:36:03;19.50;99.90
57843;DHT22;43673;51.058;3.734;2022-09-28T07:38:33;20.20;99.90
57843;DHT22;43673;51.058;3.734;2022-09-28T07:40:59;20.60;99.90
57843;DHT22;43673;51.058;3.734;2022-09-28T07:43:39;20.90;99.90
57843;DHT22;43673;51.058;3.734;2022-09-28T07:46:06;21.00;99.90
57843;DHT22;43673;51.058;3.734;2022-09-28T07:48:42;21.60;99.90
57843;DHT22;43673;51.058;3.734;2022-09-28T07:51:10;21.80;99.40
57843;DHT22;43673;51.058;3.734;2022-09-28T07:53:35;22.00;98.50
57843;DHT22;43673;51.058;3.734;2022-09-28T07:56:03;22.20;97.90
57843;DHT22;43673;51.058;3.734;2022-09-28T07:58:33;22.70;97.40
57843;DHT22;43673;51.058;3.734;2022-09-28T08:01:03;22.80;96.30
57843;DHT22;43673;51.058;3.734;2022-09-28T08:03:29;22.90;95.60
57843;DHT22;43673;51.058;3.734;2022-09-28T08:05:59;22.60;95.50
57843;DHT22;43673;51.058;3.734;2022-09-28T08:08:25;22.70;95.60
57843;DHT22;43673;51.058;3.734;2022-09-28T08:10:51;22.80;95.40
57843;DHT22;43673;51.058;3.734;2022-09-28T08:13:18;23.00;94.90
57843;DHT22;43673;51.058;3.734;2022-09-28T08:15:44;23.10;94.60
57843;DHT22;43673;51.058;3.734;2022-09-28T08:18:15;23.70;94.20
57843;DHT22;43673;51.058;3.734;2022-09-28T08:20:41;24.40;93.10
57843;DHT22;43673;51.058;3.734;2022-09-28T08:23:25;24.40;92.10
57843;DHT22;43673;51.058;3.734;2022-09-28T08:25:51;24.00;92.30
57843;DHT22;43673;51.058;3.734;2022-09-28T08:28:19;23.60;92.60
57843;DHT22;43673;51.058;3.734;2022-09-28T08:30:47;23.10;93.40
57843;DHT22;43673;51.058;3.734;2022-09-28T08:33:16;22.20;94.40
57843;DHT22;43673;51.058;3.734;2022-09-28T08:35:57;21.30;95.90
57843;DHT22;43673;51.058;3.734;2022-09-28T08:38:24;20.40;97.30
57843;DHT22;43673;51.058;3.734;2022-09-28T08:46:19;18.30;99.90
57843;DHT22;43673;51.058;3.734;2022-09-28T08:48:52;18.10;99.90
57843;DHT22;43673;51.058;3.734;2022-09-28T08:51:24;17.80;99.90
57843;DHT22;43673;51.058;3.734;2022-09-28T08:53:59;17.60;99.90
57843;DHT22;43673;51.058;3.734;2022-09-28T08:56:43;17.60;99.90
57843;DHT22;43673;51.058;3.734;2022-09-28T08:59:33;17.70;99.90
57843;DHT22;43673;51.058;3.734;2022-09-28T09:02:03;17.90;99.90
57843;DHT22;43673;51.058;3.734;2022-09-28T09:04:34;17.80;99.90
57843;DHT22;43673;51.058;3.734;2022-09-28T09:20:36;20.10;99.90
57843;DHT22;43673;51.058;3.734;2022-09-28T09:25:50;21.50;99.60
57843;DHT22;43673;51.058;3.734;2022-09-28T09:37:00;23.60;94.50
57843;DHT22;43673;51.058;3.734;2022-09-28T09:45:01;24.40;92.20
57843;DHT22;43673;51.058;3.734;2022-09-28T09:47:37;24.70;91.60
57843;DHT22;43673;51.058;3.734;2022-09-28T09:50:35;24.90;90.90
57843;DHT22;43673;51.058;3.734;2022-09-28T09:55:46;25.50;89.70
57843;DHT22;43673;51.058;3.734;2022-09-28T09:58:35;25.90;85.30
57843;DHT22;43673;51.058;3.734;2022-09-28T10:01:28;25.50;84.60
57843;DHT22;43673;51.058;3.734;2022-09-28T10:03:57;25.30;82.10
57843;DHT22;43673;51.058;3.734;2022-09-28T10:06:32;24.90;82.90
57843;DHT22;43673;51.058;3.734;2022-09-28T10:09:07;25.10;82.40
57843;DHT22;43673;51.058;3.734;2022-09-28T10:11:44;24.80;84.00
57843;DHT22;43673;51.058;3.734;2022-09-28T10:14:18;25.30;81.80
57843;DHT22;43673;51.058;3.734;2022-09-28T10:16:46;25.50;80.40
57843;DHT22;43673;51.058;3.734;2022-09-28T10:19:13;25.10;80.60
57843;DHT22;43673;51.058;3.734;2022-09-28T10:21:41;24.00;83.10
57843;DHT22;43673;51.058;3.734;2022-09-28T10:24:17;23.40;86.40
57843;DHT22;43673;51.058;3.734;2022-09-28T10:26:53;22.90;87.40
57843;DHT22;43673;51.058;3.734;2022-09-28T10:29:22;22.10;86.30
57843;DHT22;43673;51.058;3.734;2022-09-28T10:31:50;21.80;86.00
57843;DHT22;43673;51.058;3.734;2022-09-28T10:34:26;22.60;84.80
57843;DHT22;43673;51.058;3.734;2022-09-28T10:36:58;24.10;82.20
57843;DHT22;43673;51.058;3.734;2022-09-28T10:39:32;25.20;76.80
57843;DHT22;43673;51.058;3.734;2022-09-28T10:42:01;25.80;77.20
57843;DHT22;43673;51.058;3.734;2022-09-28T10:44:31;25.70;77.90
57843;DHT22;43673;51.058;3.734;2022-09-28T10:47:03;26.80;75.30
57843;DHT22;43673;51.058;3.734;2022-09-28T10:49:41;26.80;72.70
57843;DHT22;43673;51.058;3.734;2022-09-28T10:54:55;25.00;76.40
57843;DHT22;43673;51.058;3.734;2022-09-28T10:57:35;24.60;78.00
57843;DHT22;43673;51.058;3.734;2022-09-28T11:00:03;24.00;77.80
57843;DHT22;43673;51.058;3.734;2022-09-28T11:02:35;23.50;80.60
57843;DHT22;43673;51.058;3.734;2022-09-28T11:05:04;23.60;79.80
57843;DHT22;43673;51.058;3.734;2022-09-28T11:07:32;23.50;80.80
57843;DHT22;43673;51.058;3.734;2022-09-28T11:09:59;23.20;80.90
57843;DHT22;43673;51.058;3.734;2022-09-28T11:12:36;22.70;81.90
57843;DHT22;43673;51.058;3.734;2022-09-28T11:15:05;22.30;81.30
57843;DHT22;43673;51.058;3.734;2022-09-28T11:17:34;22.60;81.40
57843;DHT22;43673;51.058;3.734;2022-09-28T11:22:51;23.00;77.70
57843;DHT22;43673;51.058;3.734;2022-09-28T11:33:28;22.40;75.00
57843;DHT22;43673;51.058;3.734;2022-09-28T11:42:01;21.30;77.40
57843;DHT22;43673;51.058;3.734;2022-09-28T11:45:09;21.30;78.80
57843;DHT22;43673;51.058;3.734;2022-09-28T11:50:28;22.30;79.60
57843;DHT22;43673;51.058;3.734;2022-09-28T11:55:39;21.40;82.30
57843;DHT22;43673;51.058;3.734;2022-09-28T12:00:44;21.20;85.20
57843;DHT22;43673;51.058;3.734;2022-09-28T12:03:24;21.00;85.30
57843;DHT22;43673;51.058;3.734;2022-09-28T12:06:03;20.90;86.20
57843;DHT22;43673;51.058;3.734;2022-09-28T12:08:39;20.90;86.70
57843;DHT22;43673;51.058;3.734;2022-09-28T12:11:18;20.50;87.70
57843;DHT22;43673;51.058;3.734;2022-09-28T12:13:48;20.40;87.80
57843;DHT22;43673;51.058;3.734;2022-09-28T12:16:27;20.10;88.50
57843;DHT22;43673;51.058;3.734;2022-09-28T12:19:06;20.00;90.10
57843;DHT22;43673;51.058;3.734;2022-09-28T12:21:46;19.80;90.00
57843;DHT22;43673;51.058;3.734;2022-09-28T12:24:32;19.60;90.20
57843;DHT22;43673;51.058;3.734;2022-09-28T12:27:38;19.40;90.80
57843;DHT22;43673;51.058;3.734;2022-09-28T12:30:17;19.40;90.90
57843;DHT22;43673;51.058;3.734;2022-09-28T12:32:52;19.30;90.60
57843;DHT22;43673;51.058;3.734;2022-09-28T12:52:05;18.80;91.20
57843;DHT22;43673;51.058;3.734;2022-09-28T13:05:49;18.50;91.80
57843;DHT22;43673;51.058;3.734;2022-09-28T13:11:14;18.70;92.10
57843;DHT22;43673;51.058;3.734;2022-09-28T13:16:07;18.70;92.40
57843;DHT22;43673;51.058;3.734;2022-09-28T13:19:43;18.60;91.70
57843;DHT22;43673;51.058;3.734;2022-09-28T13:24:27;18.60;92.10
57843;DHT22;43673;51.058;3.734;2022-09-28T13:26:58;18.70;92.10
57843;DHT22;43673;51.058;3.734;2022-09-28T13:29:29;18.80;91.50
57843;DHT22;43673;51.058;3.734;2022-09-28T13:31:57;18.80;91.70
57843;DHT22;43673;51.058;3.734;2022-09-28T13:34:28;18.70;91.50
57843;DHT22;43673;51.058;3.734;2022-09-28T13:42:09;18.20;92.20
57843;DHT22;43673;51.058;3.734;2022-09-28T13:45:09;17.90;92.40
57843;DHT22;43673;51.058;3.734;2022-09-28T13:48:09;17.90;93.20
57843;DHT22;43673;51.058;3.734;2022-09-28T13:51:14;18.00;93.00
57843;DHT22;43673;51.058;3.734;2022-09-28T14:01:50;17.80;93.30
57843;DHT22;43673;51.058;3.734;2022-09-28T14:05:30;17.70;93.60
57843;DHT22;43673;51.058;3.734;2022-09-28T14:12:48;17.10;94.20
57843;DHT22;43673;51.058;3.734;2022-09-28T14:18:34;17.20;94.60
57843;DHT22;43673;51.058;3.734;2022-09-28T14:29:26;17.80;94.50
57843;DHT22;43673;51.058;3.734;2022-09-28T14:31:59;17.80;94.20
57843;DHT22;43673;51.058;3.734;2022-09-28T14:34:41;17.80;94.00
57843;DHT22;43673;51.058;3.734;2022-09-28T14:37:20;17.70;94.30
57843;DHT22;43673;51.058;3.734;2022-09-28T14:40:32;17.60;94.60
57843;DHT22;43673;51.058;3.734;2022-09-28T14:43:35;17.80;94.70
57843;DHT22;43673;51.058;3.734;2022-09-28T14:48:53;17.90;94.40
57843;DHT22;43673;51.058;3.734;2022-09-28T14:59:05;17.80;92.30
57843;DHT22;43673;51.058;3.734;2022-09-28T15:01:32;17.70;91.20
57843;DHT22;43673;51.058;3.734;2022-09-28T15:04:02;17.60;91.00
57843;DHT22;43673;51.058;3.734;2022-09-28T15:09:46;17.40;91.10
57843;DHT22;43673;51.058;3.734;2022-09-28T15:17:19;17.10;92.40
57843;DHT22;43673;51.058;3.734;2022-09-28T15:20:23;17.20;92.10
57843;DHT22;43673;51.058;3.734;2022-09-28T15:22:52;17.30;91.80
57843;DHT22;43673;51.058;3.734;2022-09-28T15:25:26;17.40;91.80
57843;DHT22;43673;51.058;3.734;2022-09-28T15:27:57;17.30;91.40
57843;DHT22;43673;51.058;3.734;2022-09-28T15:30:34;17.30;91.70
57843;DHT22;43673;51.058;3.734;2022-09-28T15:33:02;17.20;92.60
57843;DHT22;43673;51.058;3.734;2022-09-28T15:35:57;17.30;93.20
57843;DHT22;43673;51.058;3.734;2022-09-28T15:38:24;17.20;93.50
57843;DHT22;43673;51.058;3.734;2022-09-28T15:40:49;17.20;94.10
57843;DHT22;43673;51.058;3.734;2022-09-28T15:43:26;17.00;94.50
57843;DHT22;43673;51.058;3.734;2022-09-28T15:51:09;16.70;95.70
57843;DHT22;43673;51.058;3.734;2022-09-28T15:53:56;16.60;95.90
57843;DHT22;43673;51.058;3.734;2022-09-28T15:56:24;16.40;96.40
57843;DHT22;43673;51.058;3.734;2022-09-28T16:01:42;16.20;97.20
57843;DHT22;43673;51.058;3.734;2022-09-28T16:12:43;15.90;98.00
57843;DHT22;43673;51.058;3.734;2022-09-28T16:17:42;15.80;98.60
57843;DHT22;43673;51.058;3.734;2022-09-28T16:22:59;15.60;98.80
57843;DHT22;43673;51.058;3.734;2022-09-28T16:25:32;15.60;98.50
57843;DHT22;43673;51.058;3.734;2022-09-28T16:28:02;15.50;98.40
57843;DHT22;43673;51.058;3.734;2022-09-28T16:30:30;15.60;98.50
57843;DHT22;43673;51.058;3.734;2022-09-28T16:33:03;15.60;98.30
57843;DHT22;43673;51.058;3.734;2022-09-28T16:38:15;15.50;99.30
57843;DHT22;43673;51.058;3.734;2022-09-28T16:40:49;15.40;99.10
57843;DHT22;43673;51.058;3.734;2022-09-28T16:45:52;15.20;99.50
57843;DHT22;43673;51.058;3.734;2022-09-28T16:48:27;15.30;99.90
57843;DHT22;43673;51.058;3.734;2022-09-28T16:50:54;15.10;99.90
57843;DHT22;43673;51.058;3.734;2022-09-28T16:53:20;15.10;99.90
57843;DHT22;43673;51.058;3.734;2022-09-28T16:56:05;15.00;99.90
57843;DHT22;43673;51.058;3.734;2022-09-28T16:58:31;14.90;99.90
57843;DHT22;43673;51.058;3.734;2022-09-28T17:00:58;14.90;99.90
57843;DHT22;43673;51.058;3.734;2022-09-28T17:03:24;14.80;99.90
57843;DHT22;43673;51.058;3.734;2022-09-28T17:05:51;14.70;99.90
57843;DHT22;43673;51.058;3.734;2022-09-28T17:08:19;14.60;99.90
57843;DHT22;43673;51.058;3.734;2022-09-28T17:10:51;14.50;99.90
57843;DHT22;43673;51.058;3.734;2022-09-28T17:13:18;14.50;99.90
57843;DHT22;43673;51.058;3.734;2022-09-28T17:15:45;14.40;99.90
57843;DHT22;43673;51.058;3.734;2022-09-28T17:18:16;14.50;99.90
57843;DHT22;43673;51.058;3.734;2022-09-28T17:20:47;14.40;99.90
57843;DHT22;43673;51.058;3.734;2022-09-28T17:23:13;14.40;99.90
57843;DHT22;43673;51.058;3.734;2022-09-28T17:25:40;14.30;99.90
57843;DHT22;43673;51.058;3.734;2022-09-28T17:28:18;14.30;99.90
57843;DHT22;43673;51.058;3.734;2022-09-28T17:30:53;14.20;99.90
57843;DHT22;43673;51.058;3.734;2022-09-28T17:33:19;14.20;99.90
57843;DHT22;43673;51.058;3.734;2022-09-28T17:35:45;14.10;99.90
57843;DHT22;43673;51.058;3.734;2022-09-28T17:38:14;13.90;99.90
57843;DHT22;43673;51.058;3.734;2022-09-28T17:40:58;13.70;99.90
57843;DHT22;43673;51.058;3.734;2022-09-28T17:43:52;13.80;99.90
57843;DHT22;43673;51.058;3.734;2022-09-28T17:46:33;13.70;99.90
57843;DHT22;43673;51.058;3.734;2022-09-28T17:49:02;13.70;99.90
57843;DHT22;43673;51.058;3.734;2022-09-28T17:51:31;13.60;99.90
57843;DHT22;43673;51.058;3.734;2022-09-28T17:54:03;13.60;99.90
57843;DHT22;43673;51.058;3.734;2022-09-28T17:56:31;13.50;99.90
57843;DHT22;43673;51.058;3.734;2022-09-28T17:59:10;13.50;99.90
57843;DHT22;43673;51.058;3.734;2022-09-28T18:01:40;13.30;99.90
57843;DHT22;43673;51.058;3.734;2022-09-28T18:04:07;13.50;99.90
57843;DHT22;43673;51.058;3.734;2022-09-28T18:06:34;13.50;99.90
57843;DHT22;43673;51.058;3.734;2022-09-28T18:09:02;13.30;99.90
57843;DHT22;43673;51.058;3.734;2022-09-28T18:11:31;13.40;99.90
57843;DHT22;43673;51.058;3.734;2022-09-28T18:13:57;13.50;99.90
57843;DHT22;43673;51.058;3.734;2022-09-28T18:16:23;13.40;99.90
57843;DHT22;43673;51.058;3.734;2022-09-28T18:18:50;13.50;99.90
57843;DHT22;43673;51.058;3.734;2022-09-28T18:21:16;13.40;99.90
57843;DHT22;43673;51.058;3.734;2022-09-28T18:23:42;13.40;99.90
57843;DHT22;43673;51.058;3.734;2022-09-28T18:26:14;13.40;99.90
57843;DHT22;43673;51.058;3.734;2022-09-28T18:28:40;13.30;99.90
57843;DHT22;43673;51.058;3.734;2022-09-28T18:31:08;13.20;99.90
57843;DHT22;43673;51.058;3.734;2022-09-28T18:33:34;13.30;99.90
57843;DHT22;43673;51.058;3.734;2022-09-28T18:36:01;13.50;99.90
57843;DHT22;43673;51.058;3.734;2022-09-28T18:38:30;13.20;99.90
57843;DHT22;43673;51.058;3.734;2022-09-28T18:41:04;13.30;99.90
57843;DHT22;43673;51.058;3.734;2022-09-28T18:49:42;13.00;99.90
